Time;durP1;ratioP1;P1;durP2;ratioP2;P2;SDS_P1;SDS_P2;PMS_P1;PMS_P2;Temp;Humidity;BMP_temperature;BMP_pressure;BME280_temperature;BME280_humidity;BME280_pressure;Samples;Min_cycle;Max_cycle;Signal;HPM_P1;HPM_P2
2023/07/11 00:00:15;;;;;;;5.20;3.10;;;;;;;19.00;89.30;100689.59;4941013;29;20222;-70
2023/07/11 00:02:43;;;;;;;4.87;2.90;;;;;;;18.88;90.21;100684.41;4934665;29;20282;-71
2023/07/11 00:05:12;;;;;;;7.73;3.00;;;;;;;18.82;91.97;100699.75;4937585;29;20274;-70
2023/07/11 00:07:39;;;;;;;5.70;3.10;;;;;;;18.88;93.47;100687.09;4936829;29;20309;-71
2023/07/11 00:10:09;;;;;;;6.03;3.00;;;;;;;18.85;93.37;100687.16;4938487;29;20678;-71
2023/07/11 00:12:36;;;;;;;4.23;2.90;;;;;;;18.68;95.15;100692.75;4931968;29;20210;-70
2023/07/11 00:15:03;;;;;;;5.10;3.20;;;;;;;18.50;97.30;100682.28;4936088;29;20195;-71
2023/07/11 00:17:30;;;;;;;3.63;2.87;;;;;;;18.46;100.00;100689.47;4936386;29;20219;-70
2023/07/11 00:19:58;;;;;;;4.10;3.03;;;;;;;18.54;100.00;100685.81;4935482;29;20671;-70
2023/07/11 00:22:28;;;;;;;7.03;3.30;;;;;;;18.46;100.00;100677.88;4938688;29;20667;-73
2023/07/11 00:24:55;;;;;;;5.87;3.50;;;;;;;18.39;100.00;100690.44;4934783;29;20618;-73
2023/07/11 00:27:23;;;;;;;4.73;3.17;;;;;;;18.36;100.00;100678.88;4937029;29;20309;-71
2023/07/11 00:29:51;;;;;;;3.73;3.10;;;;;;;18.34;100.00;100689.63;4935082;29;20201;-72
2023/07/11 00:32:17;;;;;;;7.47;3.70;;;;;;;18.30;100.00;100692.38;4937501;29;20198;-72
2023/07/11 00:34:44;;;;;;;4.17;3.23;;;;;;;18.61;100.00;100688.38;4936763;29;20207;-72
2023/07/11 00:37:10;;;;;;;5.77;3.90;;;;;;;18.52;100.00;100680.47;4934543;29;20203;-70
2023/07/11 00:39:37;;;;;;;5.73;3.30;;;;;;;18.45;100.00;100676.09;4935791;29;20199;-70
2023/07/11 00:42:05;;;;;;;4.57;3.30;;;;;;;18.42;100.00;100685.06;4930993;29;20199;-73
2023/07/11 00:44:56;;;;;;;7.07;3.70;;;;;;;18.52;100.00;100682.25;4930064;29;20222;-71
2023/07/11 00:47:26;;;;;;;7.20;3.40;;;;;;;18.47;100.00;100676.97;4934010;29;20229;-70
2023/07/11 00:50:01;;;;;;;5.80;3.27;;;;;;;18.21;100.00;100669.25;4938238;29;20278;-70
2023/07/11 00:52:28;;;;;;;4.57;3.40;;;;;;;18.11;100.00;100679.22;4930389;29;20241;-70
2023/07/11 00:54:58;;;;;;;5.37;3.23;;;;;;;18.05;100.00;100671.28;4930812;29;20286;-70
2023/07/11 00:57:29;;;;;;;3.97;2.90;;;;;;;18.02;100.00;100679.34;4935351;29;20230;-71
2023/07/11 00:59:55;;;;;;;5.07;3.57;;;;;;;18.00;100.00;100664.16;4937422;29;20205;-70
2023/07/11 01:02:28;;;;;;;5.50;3.23;;;;;;;17.92;100.00;100672.31;4938196;29;20266;-71
2023/07/11 01:04:55;;;;;;;5.93;3.30;;;;;;;17.96;100.00;100657.97;4931953;29;20299;-73
2023/07/11 01:07:25;;;;;;;5.10;3.20;;;;;;;18.03;100.00;100656.13;4932375;29;20250;-70
2023/07/11 01:09:52;;;;;;;6.77;3.47;;;;;;;18.08;100.00;100663.19;4937961;29;20195;-70
2023/07/11 01:12:19;;;;;;;4.43;3.27;;;;;;;18.15;100.00;100666.66;4936283;28;21308;-73
2023/07/11 01:14:48;;;;;;;6.47;3.10;;;;;;;17.96;100.00;100657.97;4935578;29;20235;-70
2023/07/11 01:17:24;;;;;;;4.27;3.20;;;;;;;17.84;100.00;100669.72;4937418;29;20202;-71
2023/07/11 01:19:51;;;;;;;4.73;3.30;;;;;;;17.76;100.00;100668.94;4934495;29;20207;-70
2023/07/11 01:22:18;;;;;;;4.20;3.37;;;;;;;17.75;100.00;100667.16;4935560;29;20207;-72
2023/07/11 01:24:44;;;;;;;6.13;3.67;;;;;;;17.76;100.00;100662.69;4935059;29;20226;-70
2023/07/11 01:27:11;;;;;;;5.53;3.30;;;;;;;17.74;100.00;100664.50;4928432;29;20304;-70
2023/07/11 01:29:37;;;;;;;6.83;3.47;;;;;;;17.83;100.00;100665.28;4934452;29;20206;-72
2023/07/11 01:32:04;;;;;;;7.07;3.40;;;;;;;17.74;100.00;100660.03;4930401;29;20221;-70
2023/07/11 01:34:32;;;;;;;4.40;3.17;;;;;;;17.77;100.00;100659.09;4934057;29;20207;-70
2023/07/11 01:36:58;;;;;;;4.40;3.30;;;;;;;17.67;100.00;100657.44;4934045;29;20203;-74
2023/07/11 01:39:25;;;;;;;5.23;2.93;;;;;;;17.69;100.00;100658.31;4934705;29;20218;-70
2023/07/11 01:41:51;;;;;;;5.63;3.27;;;;;;;17.61;100.00;100654.78;4933624;29;20211;-70
2023/07/11 01:44:21;;;;;;;6.27;3.60;;;;;;;17.50;100.00;100650.44;4940917;29;20207;-72
2023/07/11 01:46:47;;;;;;;5.10;3.00;;;;;;;17.41;100.00;100646.97;4933034;29;20282;-71
2023/07/11 01:49:13;;;;;;;8.33;3.37;;;;;;;17.34;100.00;100646.16;4937413;28;20263;-73
2023/07/11 01:51:44;;;;;;;8.33;3.37;;;;;;;17.23;100.00;100642.69;4932991;29;20225;-71
2023/07/11 01:54:11;;;;;;;6.67;3.27;;;;;;;17.20;100.00;100640.03;4928328;29;20698;-70
2023/07/11 01:56:38;;;;;;;7.23;3.67;;;;;;;17.31;100.00;100632.78;4936839;29;20198;-71
2023/07/11 01:59:06;;;;;;;5.67;3.10;;;;;;;17.21;100.00;100639.13;4936580;29;20309;-70
2023/07/11 02:01:33;;;;;;;5.57;3.00;;;;;;;17.33;100.00;100635.44;4915188;29;20706;-70
2023/07/11 02:04:00;;;;;;;5.10;3.17;;;;;;;17.29;100.00;100639.94;4931462;29;20667;-73
2023/07/11 02:06:28;;;;;;;4.80;2.97;;;;;;;17.26;100.00;100633.75;4932788;29;20219;-71
2023/07/11 02:08:54;;;;;;;3.23;2.87;;;;;;;17.16;100.00;100628.47;4932316;29;20230;-71
2023/07/11 02:11:21;;;;;;;6.67;3.50;;;;;;;17.18;100.00;100628.44;4933574;29;20203;-70
2023/07/11 02:13:47;;;;;;;4.27;3.30;;;;;;;17.12;100.00;100625.81;4935245;29;20200;-70
2023/07/11 02:16:13;;;;;;;6.67;2.83;;;;;;;17.15;100.00;100620.44;4931033;29;20202;-70
2023/07/11 02:18:40;;;;;;;3.70;3.13;;;;;;;17.14;100.00;100618.66;4926568;29;20245;-70
2023/07/11 02:21:06;;;;;;;4.20;3.10;;;;;;;17.09;100.00;100626.75;4940719;29;20227;-75
2023/07/11 02:23:33;;;;;;;5.27;3.43;;;;;;;16.98;100.00;100617.94;4938341;29;20197;-73
2023/07/11 02:25:59;;;;;;;4.23;3.30;;;;;;;16.96;100.00;100632.22;4927205;29;20198;-70
2023/07/11 02:28:26;;;;;;;6.33;3.50;;;;;;;16.87;100.00;100620.72;4942657;28;20237;-70
2023/07/11 02:30:52;;;;;;;4.90;3.33;;;;;;;16.83;100.00;100626.13;4951981;29;20205;-70
2023/07/11 02:33:18;;;;;;;5.07;3.50;;;;;;;16.75;100.00;100628.81;4943975;28;20686;-70
2023/07/11 02:35:45;;;;;;;5.53;3.50;;;;;;;16.71;100.00;100624.41;4922985;29;20294;-70
2023/07/11 02:38:11;;;;;;;4.57;3.20;;;;;;;16.64;100.00;100619.97;4940792;29;20219;-73
2023/07/11 02:40:38;;;;;;;5.90;3.83;;;;;;;16.62;100.00;100627.13;4935725;29;20203;-73
2023/07/11 02:43:04;;;;;;;7.17;4.20;;;;;;;16.65;100.00;100616.41;4947536;29;20206;-70
2023/07/11 02:45:30;;;;;;;5.07;3.70;;;;;;;16.89;100.00;100626.06;4950111;29;20265;-70
2023/07/11 02:47:57;;;;;;;5.07;3.37;;;;;;;16.88;100.00;100629.63;4950614;29;20226;-70
2023/07/11 02:50:23;;;;;;;5.03;3.60;;;;;;;16.87;100.00;100627.84;4936910;29;23826;-67
2023/07/11 02:52:50;;;;;;;4.90;3.37;;;;;;;16.81;100.00;100620.78;4927987;29;20207;-70
2023/07/11 02:55:16;;;;;;;5.50;3.40;;;;;;;16.72;100.00;100628.84;4913236;29;20203;-70
2023/07/11 02:57:43;;;;;;;5.43;3.73;;;;;;;16.65;100.00;100623.53;4930425;29;20237;-73
2023/07/11 03:00:10;;;;;;;6.23;3.97;;;;;;;16.68;100.00;100613.72;4917784;29;20195;-73
2023/07/11 03:02:37;;;;;;;6.43;4.13;;;;;;;16.88;100.00;100610.91;4917080;29;20398;-70
2023/07/11 03:05:05;;;;;;;6.73;3.70;;;;;;;17.03;100.00;100601.84;4922982;29;20207;-70
2023/07/11 03:07:34;;;;;;;4.50;3.37;;;;;;;17.07;100.00;100595.56;4912315;29;20271;-71
2023/07/11 03:10:01;;;;;;;7.37;3.87;;;;;;;16.92;100.00;100599.28;4913633;29;20696;-70
2023/07/11 03:12:27;;;;;;;8.13;3.50;;;;;;;16.88;100.00;100605.56;4918814;29;20199;-71
2023/07/11 03:14:54;;;;;;;4.97;3.43;;;;;;;16.84;100.00;100607.38;4930427;29;20210;-70
2023/07/11 03:17:21;;;;;;;5.20;3.90;;;;;;;16.78;100.00;100609.19;4920876;29;20222;-71
2023/07/11 03:19:47;;;;;;;6.40;3.97;;;;;;;16.82;100.00;100603.81;4913074;29;20276;-70
2023/07/11 03:22:13;;;;;;;5.37;3.90;;;;;;;16.76;100.00;100601.19;4910395;29;20203;-70
2023/07/11 03:24:40;;;;;;;4.97;3.57;;;;;;;16.68;100.00;100603.03;4930290;29;20199;-72
2023/07/11 03:27:06;;;;;;;7.47;3.53;;;;;;;16.58;100.00;100596.84;4913924;29;20294;-71
2023/07/11 03:29:33;;;;;;;7.43;3.83;;;;;;;16.43;100.00;100586.28;4912810;29;20224;-74
2023/07/11 03:31:59;;;;;;;5.37;3.57;;;;;;;16.34;100.00;100588.09;4924872;29;20211;-70
2023/07/11 03:34:25;;;;;;;4.90;3.70;;;;;;;16.35;100.00;100589.88;4920306;29;20464;-70
2023/07/11 03:36:52;;;;;;;8.20;3.93;;;;;;;16.46;100.00;100596.94;4908537;29;20207;-70
2023/07/11 03:39:18;;;;;;;7.13;4.83;;;;;;;16.39;100.00;100581.81;4911190;29;20726;-70
2023/07/11 03:41:44;;;;;;;5.00;3.90;;;;;;;16.44;100.00;100579.16;4917095;29;20210;-70
2023/07/11 03:44:11;;;;;;;7.73;3.47;;;;;;;16.42;100.00;100588.97;4912003;29;20561;-73
2023/07/11 03:46:37;;;;;;;6.60;3.70;;;;;;;16.42;100.00;100588.97;4905790;29;20205;-74
2023/07/11 03:49:04;;;;;;;8.60;3.53;;;;;;;16.38;100.00;100581.84;4920168;29;20246;-70
2023/07/11 03:51:30;;;;;;;5.13;3.23;;;;;;;16.42;100.00;100580.94;4928727;29;20287;-70
2023/07/11 03:53:56;;;;;;;9.37;3.73;;;;;;;16.43;100.00;100574.69;4918385;29;20389;-70
2023/07/11 03:56:23;;;;;;;7.20;3.80;;;;;;;16.51;100.00;100576.41;4927554;29;20299;-70
2023/07/11 03:58:50;;;;;;;6.47;3.83;;;;;;;16.56;100.00;100579.94;4919053;23;20705;-67
2023/07/11 04:01:17;;;;;;;5.30;3.60;;;;;;;16.58;100.00;100578.13;4914332;29;20243;-67
2023/07/11 04:03:43;;;;;;;4.83;3.67;;;;;;;16.66;100.00;100572.75;4916044;29;20206;-67
2023/07/11 04:06:10;;;;;;;4.77;3.47;;;;;;;16.71;100.00;100578.03;4915746;29;20200;-67
2023/07/11 04:08:38;;;;;;;6.97;4.30;;;;;;;16.83;100.00;100568.16;4924861;29;20218;-67
2023/07/11 04:11:05;;;;;;;5.40;3.77;;;;;;;16.91;100.00;100570.75;4918850;29;20206;-67
2023/07/11 04:13:31;;;;;;;5.77;3.73;;;;;;;17.05;100.00;100573.28;4921382;29;20252;-67
2023/07/11 04:15:58;;;;;;;6.03;3.63;;;;;;;17.06;100.00;100578.59;4921638;29;20227;-67
2023/07/11 04:18:24;;;;;;;7.23;4.77;;;;;;;17.12;100.00;100570.50;4915663;29;20792;-67
2023/07/11 04:20:51;;;;;;;5.80;3.80;;;;;;;17.25;100.00;100571.28;4915398;29;20236;-67
2023/07/11 04:23:17;;;;;;;6.10;4.07;;;;;;;17.40;100.00;100573.78;4919163;29;20213;-67
2023/07/11 04:25:43;;;;;;;6.57;3.73;;;;;;;17.43;100.00;100572.88;4909860;29;20204;-67
2023/07/11 04:28:11;;;;;;;8.53;3.73;;;;;;;17.46;100.00;100570.16;4916307;29;20216;-67
2023/07/11 04:30:38;;;;;;;5.10;3.30;;;;;;;17.67;100.00;100572.63;4915675;29;20211;-67
2023/07/11 04:33:04;;;;;;;5.90;3.37;;;;;;;17.69;100.00;100573.47;4912273;29;20247;-67
2023/07/11 04:35:30;;;;;;;5.83;3.60;;;;;;;17.73;100.00;100577.88;4909204;29;20200;-67
2023/07/11 04:37:57;;;;;;;6.37;3.33;;;;;;;17.87;100.00;100572.34;4914560;29;20326;-67
2023/07/11 04:40:23;;;;;;;4.23;3.43;;;;;;;17.93;100.00;100574.03;4909515;29;20235;-67
2023/07/11 04:42:50;;;;;;;7.13;3.70;;;;;;;17.95;100.00;100574.91;4911814;29;20609;-67
2023/07/11 04:45:16;;;;;;;5.37;3.50;;;;;;;18.01;100.00;100569.44;4914913;29;20583;-67
2023/07/11 04:47:42;;;;;;;6.10;3.67;;;;;;;18.06;100.00;100573.88;4915226;29;20207;-67
2023/07/11 04:50:12;;;;;;;6.40;3.70;;;;;;;18.24;100.00;100579.84;4912256;29;20851;-67
2023/07/11 04:52:39;;;;;;;7.30;3.80;;;;;;;18.40;100.00;100571.53;4909777;29;20200;-68
2023/07/11 04:55:05;;;;;;;9.47;3.97;;;;;;;18.58;100.00;100574.88;4913926;29;20202;-67
2023/07/11 04:57:32;;;;;;;6.47;4.13;;;;;;;18.61;100.00;100577.50;4913342;29;20199;-67
2023/07/11 04:59:58;;;;;;;5.87;4.20;;;;;;;18.77;100.00;100579.91;4936235;29;20281;-67
2023/07/11 05:02:25;;;;;;;5.73;4.00;;;;;;;18.87;100.00;100574.41;4927974;29;20310;-67
2023/07/11 05:04:51;;;;;;;10.63;3.80;;;;;;;18.99;100.00;100574.19;4927790;29;20199;-67
2023/07/11 05:07:18;;;;;;;7.17;4.00;;;;;;;19.09;100.00;100571.28;4930751;29;20231;-67
2023/07/11 05:09:44;;;;;;;7.00;4.20;;;;;;;19.18;100.00;100569.34;4933880;29;20419;-67
2023/07/11 05:12:24;;;;;;;6.40;3.83;;;;;;;19.31;100.00;100571.78;4943546;29;20202;-67
2023/07/11 05:14:51;;;;;;;6.07;4.23;;;;;;;19.40;100.00;100568.91;4943836;29;20203;-67
2023/07/11 05:17:17;;;;;;;7.53;3.90;;;;;;;19.49;100.00;100562.47;4943791;29;20206;-67
2023/07/11 05:19:44;;;;;;;7.43;3.93;;;;;;;19.64;100.00;100559.53;4944734;29;20300;-67
2023/07/11 05:22:10;;;;;;;6.80;3.90;;;;;;;19.76;100.00;100558.38;4944380;29;20198;-67
2023/07/11 05:24:37;;;;;;;8.33;4.00;;;;;;;19.88;100.00;100560.78;4923905;29;20215;-68
2023/07/11 05:27:03;;;;;;;6.72;4.45;;;;;;;20.01;100.00;100556.91;4932927;29;20199;-68
2023/07/11 05:29:30;;;;;;;9.47;4.30;;;;;;;20.07;100.00;100555.00;4930285;29;20317;-67
2023/07/11 05:31:56;;;;;;;5.77;4.07;;;;;;;20.20;100.00;100556.47;4931566;29;20203;-68
2023/07/11 05:34:23;;;;;;;6.75;5.30;;;;;;;20.25;100.00;100558.13;4927791;29;20202;-69
2023/07/11 05:36:49;;;;;;;9.63;5.25;;;;;;;20.41;100.00;100553.28;4927165;29;20210;-69
2023/07/11 05:39:16;;;;;;;6.68;4.82;;;;;;;20.52;100.00;100545.88;4929850;29;20215;-68
2023/07/11 05:41:46;;;;;;;7.45;5.45;;;;;;;20.61;100.00;100548.31;4929012;29;20218;-68
2023/07/11 05:44:14;;;;;;;10.73;5.00;;;;;;;20.63;98.72;100541.09;4932817;29;20203;-68
2023/07/11 05:46:41;;;;;;;10.93;5.47;;;;;;;20.74;98.13;100548.88;4930211;29;20659;-68
2023/07/11 05:49:12;;;;;;;9.70;5.30;;;;;;;20.85;96.82;100537.88;4929745;29;20319;-68
2023/07/11 05:51:39;;;;;;;8.82;5.50;;;;;;;21.09;95.17;100539.00;4930182;29;20674;-68
2023/07/11 05:54:05;;;;;;;7.95;5.70;;;;;;;21.44;92.09;100538.94;4933902;29;20195;-70
2023/07/11 05:56:31;;;;;;;10.00;5.72;;;;;;;21.97;87.84;100541.84;4930051;29;20199;-68
2023/07/11 05:58:59;;;;;;;7.18;4.95;;;;;;;22.47;84.47;100539.38;4933757;29;20234;-67
2023/07/11 06:01:28;;;;;;;8.25;5.18;;;;;;;22.69;80.82;100531.44;4933397;29;20227;-67
2023/07/11 06:04:04;;;;;;;8.38;4.80;;;;;;;22.43;81.23;100525.13;4917746;29;20222;-68
2023/07/11 06:06:33;;;;;;;7.78;5.25;;;;;;;22.40;80.80;100527.00;4921253;29;20265;-67
2023/07/11 06:08:59;;;;;;;7.40;4.97;;;;;;;22.33;81.41;100526.31;4939884;29;20591;-68
2023/07/11 06:11:26;;;;;;;10.25;4.93;;;;;;;22.05;82.31;100525.47;4932714;29;20246;-68
2023/07/11 06:13:52;;;;;;;8.98;5.20;;;;;;;22.10;82.62;100520.81;4945550;29;20285;-67
2023/07/11 06:16:19;;;;;;;9.40;4.72;;;;;;;21.89;81.79;100519.63;4937666;29;20199;-68
2023/07/11 06:18:48;;;;;;;7.78;4.55;;;;;;;21.85;80.60;100517.94;4937592;29;20226;-68
2023/07/11 06:21:15;;;;;;;7.97;4.78;;;;;;;21.94;82.08;100514.06;4938412;29;20289;-68
2023/07/11 06:23:42;;;;;;;8.15;5.28;;;;;;;22.02;80.83;100514.75;4936211;28;20249;-68
2023/07/11 06:26:09;;;;;;;12.15;4.88;;;;;;;22.24;80.92;100504.16;4933572;29;20202;-68
2023/07/11 06:28:36;;;;;;;6.22;4.50;;;;;;;22.37;81.00;100503.69;4925705;29;20230;-68
2023/07/11 06:31:05;;;;;;;7.45;4.90;;;;;;;22.61;79.83;100506.53;4939164;29;20277;-67
2023/07/11 06:33:34;;;;;;;9.50;4.50;;;;;;;22.85;78.69;100499.44;4930963;29;20259;-68
2023/07/11 06:36:03;;;;;;;11.95;5.53;;;;;;;22.85;75.87;100503.03;4934944;29;20282;-68
2023/07/11 06:38:29;;;;;;;9.32;4.20;;;;;;;22.92;75.39;100504.56;4938191;29;20234;-68
2023/07/11 06:40:56;;;;;;;9.48;4.68;;;;;;;23.05;75.38;100508.56;4926175;29;20195;-68
2023/07/11 06:43:24;;;;;;;9.48;4.70;;;;;;;23.18;73.51;100502.72;4932365;29;20198;-68
2023/07/11 06:45:56;;;;;;;16.83;4.45;;;;;;;23.17;72.23;100506.34;4938215;29;20203;-68
2023/07/11 06:48:25;;;;;;;7.97;4.30;;;;;;;23.41;71.49;100497.34;4930716;29;20714;-68
2023/07/11 06:50:55;;;;;;;9.70;4.07;;;;;;;23.59;70.87;100488.56;4930908;29;20245;-68
2023/07/11 06:53:24;;;;;;;11.60;4.10;;;;;;;23.67;71.05;100491.00;4933972;29;20198;-68
2023/07/11 06:55:52;;;;;;;7.05;4.00;;;;;;;23.70;69.68;100482.75;4938010;29;20233;-68
2023/07/11 06:58:19;;;;;;;12.30;4.68;;;;;;;23.77;70.18;100480.69;4931225;29;20269;-68
2023/07/11 07:00:54;;;;;;;7.40;3.90;;;;;;;23.91;70.41;100481.91;4918550;29;20623;-68
2023/07/11 07:03:22;;;;;;;7.32;4.63;;;;;;;24.12;68.27;100480.16;4918899;29;20202;-68
2023/07/11 07:05:50;;;;;;;13.45;5.10;;;;;;;24.28;66.63;100480.44;4914416;29;20207;-68
2023/07/11 07:08:19;;;;;;;15.70;5.68;;;;;;;24.41;64.89;100478.09;4922791;29;20254;-68
2023/07/11 07:10:47;;;;;;;22.13;5.35;;;;;;;24.73;63.97;100477.59;4919590;29;20278;-68
2023/07/11 07:13:14;;;;;;;17.50;4.93;;;;;;;25.97;59.85;100474.66;4923330;29;20203;-68
2023/07/11 07:15:42;;;;;;;21.83;5.32;;;;;;;28.43;50.49;100474.13;4915777;29;20235;-68
2023/07/11 07:18:08;;;;;;;16.63;5.60;;;;;;;29.92;46.06;100467.53;4919853;29;20219;-68
2023/07/11 07:20:35;;;;;;;13.50;5.03;;;;;;;31.47;42.55;100472.41;4916907;29;20196;-67
2023/07/11 07:23:21;;;;;;;8.63;4.35;;;;;;;32.45;41.09;100469.81;4900001;29;20199;-71
2023/07/11 07:25:53;;;;;;;8.13;3.97;;;;;;;33.64;38.62;100467.66;4911322;29;20204;-71
2023/07/11 07:28:20;;;;;;;10.73;4.50;;;;;;;34.37;36.55;100465.31;4911506;29;20310;-71
2023/07/11 07:30:52;;;;;;;16.17;4.35;;;;;;;35.04;34.89;100470.56;4911803;29;20223;-71
2023/07/11 07:33:20;;;;;;;15.50;4.18;;;;;;;34.94;34.73;100469.63;4910922;29;20216;-67
2023/07/11 07:35:46;;;;;;;7.32;3.97;;;;;;;34.49;35.69;100465.19;4917008;29;20299;-67
2023/07/11 07:38:12;;;;;;;13.57;4.57;;;;;;;34.74;35.05;100466.69;4921306;29;20215;-68
2023/07/11 07:40:39;;;;;;;12.77;4.72;;;;;;;35.54;33.85;100465.22;4917977;29;20196;-67
2023/07/11 07:43:05;;;;;;;14.95;4.70;;;;;;;35.59;33.93;100462.94;4921057;29;20198;-68
2023/07/11 07:45:32;;;;;;;10.88;4.45;;;;;;;35.44;33.73;100457.78;4910280;29;20199;-68
2023/07/11 07:47:58;;;;;;;16.00;5.07;;;;;;;34.44;34.97;100450.06;4916544;29;20689;-68
2023/07/11 07:50:25;;;;;;;15.85;4.97;;;;;;;34.66;34.91;100449.97;4915153;29;20223;-69
2023/07/11 07:52:51;;;;;;;17.65;5.28;;;;;;;34.75;34.68;100451.03;4911613;29;20196;-69
2023/07/11 07:55:17;;;;;;;21.60;5.88;;;;;;;34.64;34.64;100449.22;4916008;29;20290;-69
2023/07/11 07:57:44;;;;;;;21.98;5.53;;;;;;;34.85;34.14;100441.91;4917558;29;20196;-69
2023/07/11 08:00:11;;;;;;;15.45;5.70;;;;;;;34.78;33.57;100437.88;4924907;29;20211;-69
2023/07/11 08:02:42;;;;;;;25.65;6.18;;;;;;;34.86;33.53;100431.78;4931608;29;20321;-69
2023/07/11 08:05:08;;;;;;;27.83;6.38;;;;;;;34.93;33.80;100429.34;4932320;29;20213;-69
2023/07/11 08:07:35;;;;;;;29.20;6.13;;;;;;;34.90;33.30;100424.97;4925320;29;20206;-69
2023/07/11 08:10:01;;;;;;;22.50;5.72;;;;;;;34.75;33.47;100431.78;4934591;29;20321;-69
2023/07/11 08:12:28;;;;;;;26.73;5.75;;;;;;;34.72;33.00;100429.28;4917289;29;20199;-69
2023/07/11 08:14:54;;;;;;;23.05;5.15;;;;;;;34.66;33.35;100433.44;4933179;29;20199;-69
2023/07/11 08:17:20;;;;;;;24.35;6.15;;;;;;;34.49;33.38;100421.16;4923421;29;20567;-69
2023/07/11 08:19:47;;;;;;;22.55;5.28;;;;;;;34.15;34.07;100422.25;4932166;29;20211;-69
2023/07/11 08:22:14;;;;;;;21.52;6.22;;;;;;;34.15;33.25;100420.38;4934960;29;20222;-69
2023/07/11 08:24:40;;;;;;;18.85;5.63;;;;;;;33.84;33.98;100416.56;4930090;29;20194;-67
2023/07/11 08:27:07;;;;;;;22.70;5.28;;;;;;;33.60;33.38;100402.94;4911879;29;20203;-67
2023/07/11 08:29:33;;;;;;;21.38;5.03;;;;;;;32.83;35.41;100404.63;4927339;29;20219;-67
2023/07/11 08:31:59;;;;;;;15.73;4.60;;;;;;;33.05;34.75;100401.03;4926346;29;20310;-67
2023/07/11 08:34:26;;;;;;;10.57;4.97;;;;;;;32.54;35.77;100395.91;4925066;29;20439;-67
2023/07/11 08:36:52;;;;;;;9.82;4.50;;;;;;;32.07;35.88;100391.31;4923194;29;20199;-67
2023/07/11 08:39:19;;;;;;;15.70;4.90;;;;;;;32.10;35.71;100394.69;4925141;29;20393;-69
2023/07/11 08:41:49;;;;;;;9.18;4.32;;;;;;;31.74;36.78;100389.25;4929241;29;20279;-69
2023/07/11 08:44:38;;;;;;;7.05;4.63;;;;;;;31.29;37.15;100397.09;4930131;29;20210;-69
2023/07/11 08:47:31;;;;;;;6.38;4.65;;;;;;;31.17;37.98;100387.88;4925994;29;20214;-69
2023/07/11 08:50:11;;;;;;;9.98;4.68;;;;;;;31.25;37.78;100381.00;4920821;29;20774;-69
2023/07/11 08:52:37;;;;;;;7.30;4.10;;;;;;;31.17;38.42;100379.69;4926443;29;20746;-69
2023/07/11 08:55:25;;;;;;;9.57;4.93;;;;;;;31.18;37.77;100378.69;4932456;29;20589;-69
2023/07/11 08:58:01;;;;;;;8.30;5.93;;;;;;;31.24;38.58;100371.06;4928450;29;20230;-69
2023/07/11 09:00:29;;;;;;;9.05;4.60;;;;;;;31.34;37.68;100374.84;4928551;29;20652;-69
2023/07/11 09:03:12;;;;;;;6.80;4.90;;;;;;;31.41;37.16;100376.16;4923322;29;20231;-67
2023/07/11 09:05:45;;;;;;;7.55;4.13;;;;;;;31.60;37.03;100365.56;4926758;29;20199;-67
2023/07/11 09:08:17;;;;;;;8.30;4.50;;;;;;;31.81;37.31;100362.28;4924665;29;20237;-70
2023/07/11 09:10:57;;;;;;;6.50;4.28;;;;;;;31.94;36.08;100355.72;4932289;29;20227;-68
2023/07/11 09:13:50;;;;;;;5.13;4.55;;;;;;;32.04;35.20;100355.94;4933209;29;20202;-69
2023/07/11 09:16:29;;;;;;;8.68;4.53;;;;;;;31.92;35.32;100345.88;4933730;29;20377;-70
2023/07/11 09:18:58;;;;;;;9.48;4.60;;;;;;;31.63;35.01;100348.94;4937799;29;20223;-69
2023/07/11 09:21:37;;;;;;;6.72;4.28;;;;;;;31.56;35.49;100339.41;4934663;29;20289;-70
2023/07/11 09:24:12;;;;;;;5.88;4.53;;;;;;;31.66;35.29;100337.75;4933529;29;20234;-69
2023/07/11 09:26:49;;;;;;;9.05;4.63;;;;;;;31.88;35.58;100339.78;4933264;29;20198;-70
2023/07/11 09:29:17;;;;;;;5.60;4.35;;;;;;;32.04;35.05;100332.16;4935779;29;20228;-68
2023/07/11 09:31:51;;;;;;;5.55;4.10;;;;;;;31.80;35.16;100328.53;4931856;29;20316;-69
2023/07/11 09:34:28;;;;;;;7.63;4.57;;;;;;;31.62;35.71;100319.81;4936934;29;20209;-71
2023/07/11 09:36:56;;;;;;;5.97;4.55;;;;;;;31.85;35.28;100319.97;4934729;29;20206;-71
2023/07/11 09:39:49;;;;;;;6.18;4.30;;;;;;;32.05;34.90;100320.19;4921553;29;20504;-68
2023/07/11 09:42:50;;;;;;;5.90;4.40;;;;;;;32.26;35.19;100311.31;4935831;29;20207;-70
2023/07/11 09:45:19;;;;;;;8.60;4.65;;;;;;;32.53;34.54;100314.63;4931390;29;20273;-69
2023/07/11 09:47:54;;;;;;;7.30;4.28;;;;;;;32.77;32.42;100313.66;4931102;29;20316;-72
2023/07/11 09:50:43;;;;;;;6.78;4.63;;;;;;;32.76;33.44;100300.94;4931858;29;20225;-70
2023/07/11 09:53:29;;;;;;;7.38;4.20;;;;;;;33.03;32.63;100305.13;4931424;29;20199;-70
2023/07/11 09:56:00;;;;;;;9.30;4.95;;;;;;;33.12;32.66;100298.00;4931305;29;20258;-70
2023/07/11 09:58:38;;;;;;;7.68;4.25;;;;;;;33.10;33.20;100305.47;4915821;29;20617;-72
2023/07/11 10:01:14;;;;;;;8.90;4.45;;;;;;;33.30;32.52;100303.84;4912639;29;20200;-72
2023/07/11 10:03:47;;;;;;;7.03;4.20;;;;;;;33.27;32.82;100294.00;4913869;29;20214;-74
2023/07/11 10:06:52;;;;;;;6.63;4.53;;;;;;;33.34;32.76;100294.41;4912468;29;20297;-72
2023/07/11 10:09:29;;;;;;;6.82;4.47;;;;;;;33.28;31.90;100283.91;4911976;29;20795;-72
2023/07/11 10:11:56;;;;;;;6.88;5.00;;;;;;;33.07;31.93;100267.31;4914227;29;20281;-73
2023/07/11 10:14:33;;;;;;;8.60;5.03;;;;;;;33.01;32.84;100271.44;4912705;29;20199;-74
2023/07/11 10:17:13;;;;;;;8.85;4.63;;;;;;;32.69;33.62;100271.25;4912005;29;20206;-73
2023/07/11 10:19:40;;;;;;;7.38;4.57;;;;;;;32.84;33.41;100271.94;4911285;29;20215;-72
2023/07/11 10:22:16;;;;;;;7.70;4.82;;;;;;;33.13;32.86;100266.81;4902831;29;20210;-72
2023/07/11 10:24:42;;;;;;;7.60;4.65;;;;;;;33.36;32.06;100261.31;4913778;29;20279;-72
2023/07/11 10:27:14;;;;;;;7.28;4.75;;;;;;;33.44;32.14;100261.53;4917379;29;20290;-72
2023/07/11 10:29:45;;;;;;;6.03;4.82;;;;;;;33.66;32.08;100260.63;4912058;29;20286;-71
2023/07/11 10:32:19;;;;;;;7.70;4.80;;;;;;;33.89;31.97;100257.66;4909554;29;20306;-72
2023/07/11 10:34:57;;;;;;;9.95;4.88;;;;;;;33.99;31.90;100260.47;4911347;29;20205;-72
2023/07/11 10:37:39;;;;;;;5.85;4.82;;;;;;;33.95;32.28;100259.88;4912917;29;20235;-71
2023/07/11 10:40:28;;;;;;;8.75;5.10;;;;;;;33.60;32.28;100249.13;4914034;29;20674;-72
2023/07/11 10:43:26;;;;;;;7.60;4.93;;;;;;;33.54;33.29;100249.66;4910297;29;20200;-71
2023/07/11 10:46:04;;;;;;;6.85;5.03;;;;;;;33.62;33.57;100246.25;4907271;29;20656;-72
2023/07/11 10:48:34;;;;;;;5.40;4.53;;;;;;;33.72;32.46;100241.72;4911620;29;20219;-72
2023/07/11 10:51:07;;;;;;;6.43;4.65;;;;;;;33.53;33.38;100234.16;4909463;29;20230;-73
2023/07/11 10:53:42;;;;;;;7.93;4.70;;;;;;;33.41;33.04;100235.22;4911755;29;20724;-72
2023/07/11 10:56:24;;;;;;;8.98;4.88;;;;;;;33.49;33.79;100223.56;4913154;29;20209;-72
2023/07/11 10:58:53;;;;;;;12.63;4.95;;;;;;;33.79;34.12;100226.47;4910393;29;20258;-72
2023/07/11 11:01:34;;;;;;;9.38;4.70;;;;;;;34.05;33.34;100220.63;4913740;29;20201;-72
2023/07/11 11:04:58;;;;;;;7.15;4.30;;;;;;;34.30;33.61;100214.69;4911718;29;20208;-73
2023/07/11 11:07:56;;;;;;;6.55;4.57;;;;;;;34.17;32.46;100219.53;4852644;29;20748;-72
2023/07/11 11:10:38;;;;;;;10.68;4.78;;;;;;;34.32;33.31;100201.69;4857348;29;20734;-72
2023/07/11 11:13:24;;;;;;;8.85;5.00;;;;;;;34.44;33.44;100197.91;4911100;29;20195;-72
2023/07/11 11:16:03;;;;;;;7.20;4.75;;;;;;;34.49;33.60;100212.09;4913021;29;20237;-73
2023/07/11 11:18:51;;;;;;;5.43;4.30;;;;;;;34.51;33.00;100192.72;4918278;29;20290;-71
2023/07/11 11:21:38;;;;;;;5.88;4.80;;;;;;;34.72;32.53;100193.50;4915352;29;20203;-73
2023/07/11 11:24:32;;;;;;;7.95;4.90;;;;;;;34.70;32.30;100178.16;4917211;29;20206;-73
2023/07/11 11:27:26;;;;;;;6.22;5.07;;;;;;;34.85;31.81;100179.56;4928624;29;20214;-72
2023/07/11 11:30:01;;;;;;;9.50;5.10;;;;;;;35.03;32.50;100171.50;4912112;29;20231;-72
2023/07/11 11:33:08;;;;;;;5.88;4.60;;;;;;;35.11;30.34;100161.50;4913840;29;20199;-73